Time;durP1;ratioP1;P1;durP2;ratioP2;P2;SDS_P1;SDS_P2;PMS_P1;PMS_P2;Temp;Humidity;BMP_temperature;BMP_pressure;BME280_temperature;BME280_humidity;BME280_pressure;Samples;Min_cycle;Max_cycle;Signal;HPM_P1;HPM_P2
2022/03/09 00:00:07;;;;;;;6.85;3.72;;;4.70;41.10;;;;;;5020465;28;20391;-85
2022/03/09 00:02:32;;;;;;;6.32;3.53;;;4.70;41.10;;;;;;5000680;28;20057;-85
2022/03/09 00:04:58;;;;;;;6.07;3.73;;;4.60;41.10;;;;;;4999545;28;20325;-85
2022/03/09 00:07:26;;;;;;;6.88;3.40;;;4.60;41.10;;;;;;5004967;28;20032;-85
2022/03/09 00:09:51;;;;;;;6.50;3.65;;;4.60;41.30;;;;;;5000804;28;20221;-85
2022/03/09 00:12:17;;;;;;;6.27;3.43;;;4.60;41.30;;;;;;5003601;28;20026;-85
2022/03/09 00:14:43;;;;;;;5.65;3.47;;;4.60;41.30;;;;;;4992526;28;20068;-85
2022/03/09 00:17:09;;;;;;;6.00;3.20;;;4.60;41.40;;;;;;5004212;28;20320;-85
2022/03/09 00:19:35;;;;;;;5.78;3.22;;;4.50;42.00;;;;;;5000187;28;20040;-85
2022/03/09 00:22:00;;;;;;;6.32;3.50;;;4.50;41.40;;;;;;5019127;28;20033;-85
2022/03/09 00:24:26;;;;;;;6.30;3.43;;;4.50;41.40;;;;;;4985713;28;20402;-85
2022/03/09 00:26:52;;;;;;;5.55;3.08;;;4.40;41.50;;;;;;4997776;28;20133;-85
2022/03/09 00:29:17;;;;;;;5.87;3.27;;;4.40;41.60;;;;;;4988974;28;20038;-85
2022/03/09 00:31:43;;;;;;;5.38;3.00;;;4.40;41.70;;;;;;4997249;28;20029;-85
2022/03/09 00:34:09;;;;;;;6.73;3.30;;;4.40;41.80;;;;;;5006408;28;20083;-84
2022/03/09 00:36:35;;;;;;;5.90;3.00;;;4.30;41.70;;;;;;5001905;28;20055;-85
2022/03/09 00:39:01;;;;;;;5.70;3.10;;;4.40;41.80;;;;;;4997534;28;20025;-85
2022/03/09 00:41:26;;;;;;;5.75;3.13;;;4.30;41.80;;;;;;4986536;28;20041;-85
2022/03/09 00:43:52;;;;;;;5.25;3.03;;;4.30;41.80;;;;;;5016619;28;20704;-85
2022/03/09 00:46:17;;;;;;;6.73;3.10;;;4.30;41.80;;;;;;4994749;28;20052;-85
2022/03/09 00:48:43;;;;;;;6.68;3.30;;;4.30;41.80;;;;;;5014295;28;20029;-85
2022/03/09 00:51:09;;;;;;;5.80;3.00;;;4.30;42.00;;;;;;5017522;28;20099;-85
2022/03/09 00:53:34;;;;;;;6.53;3.23;;;4.20;41.90;;;;;;5016962;28;20030;-85
2022/03/09 00:56:00;;;;;;;5.70;3.30;;;4.20;42.10;;;;;;4992870;28;20168;-85
2022/03/09 00:58:26;;;;;;;5.33;3.27;;;4.20;42.10;;;;;;5011680;28;20061;-84
2022/03/09 01:00:51;;;;;;;5.18;2.80;;;4.20;42.10;;;;;;5003696;28;20348;-85
2022/03/09 01:03:17;;;;;;;6.43;3.20;;;4.10;42.00;;;;;;5018499;28;20348;-85
2022/03/09 01:05:43;;;;;;;6.05;3.13;;;4.10;42.10;;;;;;4996146;28;20030;-85
2022/03/09 01:08:09;;;;;;;6.07;3.30;;;4.10;42.10;;;;;;5013434;28;20100;-85
2022/03/09 01:10:35;;;;;;;6.00;2.95;;;4.10;42.30;;;;;;4988236;28;20566;-87
2022/03/09 01:13:01;;;;;;;8.27;3.40;;;4.10;42.40;;;;;;4996293;28;20048;-86
2022/03/09 01:15:27;;;;;;;5.53;2.88;;;4.00;42.40;;;;;;5018792;28;20488;-85
2022/03/09 01:17:53;;;;;;;5.13;2.80;;;4.00;42.40;;;;;;4991268;28;20025;-86
2022/03/09 01:20:18;;;;;;;5.50;2.70;;;4.00;42.50;;;;;;5000162;28;20038;-86
2022/03/09 01:22:44;;;;;;;6.13;2.93;;;3.90;42.60;;;;;;5002966;28;20306;-86
2022/03/09 01:25:10;;;;;;;5.70;2.80;;;3.90;42.60;;;;;;5017708;28;20524;-85
2022/03/09 01:27:36;;;;;;;5.43;2.50;;;3.90;42.60;;;;;;4979322;28;20025;-85
2022/03/09 01:30:04;;;;;;;4.40;2.50;;;3.90;42.70;;;;;;5003386;28;20230;-86
2022/03/09 01:32:30;;;;;;;4.45;2.63;;;3.80;42.70;;;;;;4984197;28;20030;-85
2022/03/09 01:34:55;;;;;;;4.95;2.70;;;3.80;42.70;;;;;;5007733;28;20247;-86
2022/03/09 01:37:21;;;;;;;4.67;2.70;;;3.80;42.70;;;;;;5002838;28;20060;-85
2022/03/09 01:39:47;;;;;;;6.95;2.78;;;3.80;43.40;;;;;;4998252;28;20039;-85
2022/03/09 01:42:13;;;;;;;5.37;2.70;;;3.80;42.80;;;;;;5000318;28;20138;-86
2022/03/09 01:44:38;;;;;;;4.53;2.45;;;3.80;42.70;;;;;;4982333;28;20120;-85
2022/03/09 01:47:04;;;;;;;5.97;2.50;;;3.80;42.80;;;;;;5006800;28;20060;-86
2022/03/09 01:49:30;;;;;;;4.78;2.78;;;3.80;42.80;;;;;;5001432;28;20636;-85
2022/03/09 01:51:58;;;;;;;4.83;2.80;;;3.80;42.80;;;;;;5010740;28;20238;-85
2022/03/09 01:54:24;;;;;;;4.20;2.50;;;3.70;42.90;;;;;;5017909;28;20033;-85
2022/03/09 01:56:50;;;;;;;3.92;2.60;;;3.70;42.90;;;;;;5015842;28;20128;-85
2022/03/09 01:59:16;;;;;;;5.15;2.70;;;3.70;43.00;;;;;;4998484;28;20055;-85
2022/03/09 02:01:44;;;;;;;5.50;3.10;;;3.70;43.10;;;;;;4993354;28;20518;-83
2022/03/09 02:04:10;;;;;;;5.53;2.70;;;3.70;43.20;;;;;;5001194;28;20026;-84
2022/03/09 02:06:38;;;;;;;4.45;2.55;;;3.70;43.20;;;;;;5019028;28;20112;-84
2022/03/09 02:11:50;;;;;;;5.80;2.90;;;3.60;43.20;;;;;;5016618;28;20686;-84
2022/03/09 02:14:26;;;;;;;6.30;2.50;;;3.70;43.90;;;;;;5020183;28;20114;-84
2022/03/09 02:16:52;;;;;;;5.50;2.70;;;3.60;43.90;;;;;;4985262;28;20253;-84
2022/03/09 02:19:18;;;;;;;5.18;2.80;;;3.60;43.20;;;;;;4998309;28;20441;-84
2022/03/09 02:21:45;;;;;;;4.53;2.77;;;3.60;43.20;;;;;;4992669;28;20033;-84
2022/03/09 02:24:11;;;;;;;5.53;3.05;;;3.60;43.20;;;;;;5012327;28;20025;-84
2022/03/09 02:26:37;;;;;;;4.63;2.65;;;3.50;43.30;;;;;;5003967;28;20076;-84
2022/03/09 02:29:03;;;;;;;5.70;2.57;;;3.50;43.30;;;;;;5020732;28;20041;-84
2022/03/09 02:31:28;;;;;;;5.22;2.70;;;3.50;43.40;;;;;;5002464;28;20018;-84
2022/03/09 02:33:54;;;;;;;5.03;2.50;;;3.40;43.40;;;;;;4990311;28;20259;-84
2022/03/09 02:36:20;;;;;;;4.97;2.75;;;3.40;43.50;;;;;;5002392;28;20033;-84
2022/03/09 02:38:46;;;;;;;5.77;2.80;;;3.40;43.50;;;;;;4997045;28;20698;-84
2022/03/09 02:41:12;;;;;;;5.90;2.92;;;3.40;43.60;;;;;;5014533;28;20478;-84
2022/03/09 02:43:37;;;;;;;4.60;2.50;;;3.40;43.60;;;;;;4998734;28;20056;-84
2022/03/09 02:46:03;;;;;;;4.80;2.70;;;3.40;43.70;;;;;;5002632;28;20056;-84
2022/03/09 02:48:29;;;;;;;4.63;2.55;;;3.30;44.40;;;;;;4997895;28;20080;-84
2022/03/09 02:50:54;;;;;;;5.37;2.70;;;3.30;43.70;;;;;;4991866;28;20344;-84
2022/03/09 02:53:20;;;;;;;4.70;2.42;;;3.30;43.80;;;;;;5002186;28;20018;-84
2022/03/09 02:55:46;;;;;;;4.40;2.50;;;3.30;43.90;;;;;;5000196;28;20051;-84
2022/03/09 02:58:11;;;;;;;5.00;2.60;;;3.20;43.90;;;;;;4997694;28;20038;-84
2022/03/09 03:00:37;;;;;;;5.90;3.20;;;3.20;43.90;;;;;;5014625;28;20025;-84
2022/03/09 03:03:03;;;;;;;5.28;2.50;;;3.20;44.00;;;;;;5003258;28;20029;-84
2022/03/09 03:05:28;;;;;;;4.87;2.40;;;3.20;44.70;;;;;;4996533;28;20530;-83
2022/03/09 03:07:54;;;;;;;5.17;2.67;;;3.20;44.10;;;;;;4999043;28;20052;-84
2022/03/09 03:10:19;;;;;;;5.15;2.60;;;3.10;44.10;;;;;;4996288;28;20025;-84
2022/03/09 03:12:45;;;;;;;5.43;2.87;;;3.10;44.20;;;;;;4999383;28;20505;-84
2022/03/09 03:15:11;;;;;;;4.22;2.28;;;3.10;44.20;;;;;;5020524;28;20394;-84
2022/03/09 03:17:37;;;;;;;5.07;2.47;;;3.10;44.20;;;;;;4986410;28;20033;-84
2022/03/09 03:20:04;;;;;;;5.32;2.58;;;3.00;44.40;;;;;;5008338;28;20689;-84
2022/03/09 03:22:30;;;;;;;4.78;2.42;;;3.00;44.40;;;;;;5003073;28;20060;-84
2022/03/09 03:24:56;;;;;;;7.05;2.60;;;3.00;44.40;;;;;;4999305;28;20026;-84
2022/03/09 03:27:22;;;;;;;7.40;2.90;;;3.00;44.50;;;;;;5020147;28;20600;-84
2022/03/09 03:29:47;;;;;;;4.60;2.20;;;2.90;44.50;;;;;;5012623;28;20178;-84
2022/03/09 03:32:13;;;;;;;5.22;2.63;;;2.90;44.60;;;;;;4991287;28;20388;-84
2022/03/09 03:34:39;;;;;;;4.40;2.50;;;2.90;44.50;;;;;;4980051;28;20414;-84
2022/03/09 03:37:05;;;;;;;5.78;2.47;;;2.90;44.70;;;;;;5002005;28;20486;-84
2022/03/09 03:39:30;;;;;;;4.28;2.20;;;2.90;44.70;;;;;;5021492;28;20037;-84
2022/03/09 03:41:56;;;;;;;4.60;2.70;;;2.90;44.80;;;;;;5002849;28;20161;-84
2022/03/09 03:44:22;;;;;;;4.55;2.40;;;2.80;44.70;;;;;;5021221;28;20083;-84
2022/03/09 03:46:47;;;;;;;4.40;2.30;;;2.80;44.70;;;;;;4999512;28;20255;-84
2022/03/09 03:49:13;;;;;;;4.97;2.53;;;2.80;44.80;;;;;;4987799;28;20022;-84
2022/03/09 03:51:39;;;;;;;4.57;2.47;;;2.80;44.80;;;;;;4993222;28;20364;-84
2022/03/09 03:54:04;;;;;;;4.57;2.30;;;2.80;44.80;;;;;;4997936;28;20155;-84
2022/03/09 03:56:30;;;;;;;4.50;2.23;;;2.80;44.80;;;;;;5000707;28;20288;-84
2022/03/09 03:58:55;;;;;;;4.43;2.40;;;2.80;44.80;;;;;;5014618;28;20195;-84
2022/03/09 04:01:21;;;;;;;5.50;2.73;;;2.80;44.90;;;;;;5020530;28;20303;-84
2022/03/09 04:03:47;;;;;;;4.20;2.40;;;2.80;45.00;;;;;;5001832;28;20052;-84
2022/03/09 04:06:12;;;;;;;6.40;2.70;;;2.80;45.00;;;;;;5005067;28;20030;-84
2022/03/09 04:08:38;;;;;;;6.50;2.77;;;2.80;45.10;;;;;;4991939;28;20069;-84
2022/03/09 04:11:04;;;;;;;4.40;2.60;;;2.80;45.00;;;;;;4999867;28;20033;-84
2022/03/09 04:13:29;;;;;;;4.50;2.40;;;2.80;45.00;;;;;;5001589;28;20045;-83
2022/03/09 04:15:56;;;;;;;4.22;2.38;;;2.80;45.00;;;;;;5019583;28;20268;-84
2022/03/09 04:18:21;;;;;;;4.97;2.35;;;2.80;45.20;;;;;;5015871;28;20029;-84
2022/03/09 04:20:47;;;;;;;5.03;2.53;;;2.80;45.20;;;;;;4976000;28;20909;-84
2022/03/09 04:23:13;;;;;;;6.50;2.80;;;2.70;45.20;;;;;;5017002;28;20077;-84
2022/03/09 04:25:39;;;;;;;4.53;2.58;;;2.70;45.00;;;;;;5021676;28;20506;-84
2022/03/09 04:28:05;;;;;;;4.55;2.45;;;2.70;45.00;;;;;;5015806;28;20549;-84
2022/03/09 04:30:32;;;;;;;7.10;3.97;;;2.70;45.20;;;;;;5022831;28;20387;-84
2022/03/09 04:32:58;;;;;;;4.87;2.50;;;2.70;45.30;;;;;;5022977;28;20083;-84
2022/03/09 04:35:23;;;;;;;5.05;2.70;;;2.70;45.30;;;;;;5023525;28;20182;-84
2022/03/09 04:37:49;;;;;;;4.95;2.70;;;2.70;45.30;;;;;;4998126;28;20053;-83
2022/03/09 04:40:16;;;;;;;4.20;2.20;;;2.70;45.40;;;;;;5014958;28;20463;-83
2022/03/09 04:42:42;;;;;;;4.78;2.30;;;2.60;45.30;;;;;;5001955;28;20088;-84
2022/03/09 04:45:10;;;;;;;5.82;2.35;;;2.60;45.30;;;;;;5004341;28;20803;-84
2022/03/09 04:47:36;;;;;;;3.78;2.28;;;2.60;45.40;;;;;;5002384;28;20029;-83
2022/03/09 04:50:02;;;;;;;3.93;2.20;;;2.60;45.40;;;;;;5022184;28;20277;-84
2022/03/09 04:52:28;;;;;;;4.53;2.25;;;2.60;45.50;;;;;;4991160;28;20017;-84
2022/03/09 04:54:53;;;;;;;3.80;2.17;;;2.60;45.60;;;;;;4991581;28;20037;-84
2022/03/09 04:57:19;;;;;;;4.50;2.30;;;2.50;45.70;;;;;;5016684;28;20083;-84
2022/03/09 04:59:45;;;;;;;4.32;2.55;;;2.50;45.80;;;;;;4997138;28;20030;-84
2022/03/09 05:02:10;;;;;;;5.83;2.40;;;2.50;45.80;;;;;;5014951;28;20124;-84
2022/03/09 05:04:36;;;;;;;4.65;2.65;;;2.50;45.80;;;;;;5020356;28;20428;-84
2022/03/09 05:07:02;;;;;;;5.73;2.47;;;2.50;45.90;;;;;;5003052;28;20351;-84
2022/03/09 05:09:28;;;;;;;5.65;2.70;;;2.50;45.90;;;;;;4996359;28;20021;-84
2022/03/09 05:11:53;;;;;;;5.73;2.57;;;2.50;45.90;;;;;;5002744;28;20018;-84
2022/03/09 05:14:19;;;;;;;5.25;2.70;;;2.40;46.50;;;;;;5023025;28;20036;-84
2022/03/09 05:16:44;;;;;;;4.70;2.50;;;2.40;46.00;;;;;;5017787;28;20044;-84
2022/03/09 05:19:10;;;;;;;4.60;2.60;;;2.40;46.00;;;;;;5002908;28;20391;-84
2022/03/09 05:21:36;;;;;;;6.45;2.78;;;2.40;46.20;;;;;;5009176;28;20048;-84
2022/03/09 05:24:02;;;;;;;5.20;2.60;;;2.40;46.30;;;;;;5015302;28;20123;-84
2022/03/09 05:26:27;;;;;;;5.22;2.83;;;2.30;46.20;;;;;;5016354;28;20097;-84
2022/03/09 05:28:56;;;;;;;5.15;2.60;;;2.30;46.20;;;;;;5000721;28;20133;-83
2022/03/09 05:31:22;;;;;;;5.97;2.70;;;2.30;46.20;;;;;;5014153;28;20029;-84
2022/03/09 05:33:47;;;;;;;4.68;2.45;;;2.30;46.90;;;;;;4992471;28;20741;-84
2022/03/09 05:36:13;;;;;;;6.50;2.70;;;2.20;46.30;;;;;;5014249;28;20373;-84
2022/03/09 05:38:39;;;;;;;5.70;2.80;;;2.20;46.50;;;;;;5002180;28;20041;-84
2022/03/09 05:41:04;;;;;;;4.85;2.70;;;2.20;46.50;;;;;;4992110;28;20491;-84
2022/03/09 05:43:30;;;;;;;5.97;2.57;;;2.20;46.60;;;;;;4991250;28;20029;-84
2022/03/09 05:45:56;;;;;;;5.90;2.70;;;2.10;46.70;;;;;;5019921;28;20029;-84
2022/03/09 05:48:22;;;;;;;4.15;2.58;;;2.10;46.70;;;;;;5003444;28;20061;-85
2022/03/09 05:50:48;;;;;;;4.93;2.67;;;2.10;46.80;;;;;;5016877;28;20383;-83
2022/03/09 05:53:13;;;;;;;5.03;2.67;;;2.00;46.80;;;;;;5004476;28;20091;-83
2022/03/09 05:55:39;;;;;;;5.65;2.50;;;2.00;47.00;;;;;;4988459;28;20053;-83
2022/03/09 05:58:05;;;;;;;5.17;2.43;;;2.00;47.00;;;;;;5011948;28;20033;-83
2022/03/09 06:00:30;;;;;;;6.37;2.70;;;2.00;47.00;;;;;;4990198;28;20038;-83
2022/03/09 06:02:56;;;;;;;4.90;2.67;;;1.90;47.10;;;;;;4998352;28;20493;-83
2022/03/09 06:05:22;;;;;;;5.45;2.75;;;1.90;47.20;;;;;;4995502;28;20263;-83
2022/03/09 06:07:48;;;;;;;5.03;2.40;;;2.00;47.30;;;;;;4983998;28;20034;-83
2022/03/09 06:10:13;;;;;;;4.90;2.60;;;1.90;47.30;;;;;;4999216;28;20025;-83
2022/03/09 06:12:39;;;;;;;5.20;2.63;;;1.90;47.40;;;;;;5017170;28;20033;-83
2022/03/09 06:15:05;;;;;;;5.75;2.70;;;1.90;47.50;;;;;;5013279;28;20086;-83
2022/03/09 06:17:31;;;;;;;4.67;2.20;;;1.80;47.50;;;;;;5000448;28;20400;-83
2022/03/09 06:19:57;;;;;;;4.80;2.35;;;1.90;47.60;;;;;;5004260;28;20041;-83
2022/03/09 06:22:22;;;;;;;5.73;2.63;;;1.90;47.60;;;;;;4995229;28;20045;-83
2022/03/09 06:24:48;;;;;;;5.72;2.50;;;1.90;47.80;;;;;;4976342;28;20091;-83
2022/03/09 06:27:14;;;;;;;6.67;2.60;;;1.90;47.80;;;;;;5000961;28;20021;-83
2022/03/09 06:29:39;;;;;;;7.15;2.65;;;1.90;47.90;;;;;;5006402;28;20049;-85
2022/03/09 06:32:05;;;;;;;6.00;2.37;;;1.90;47.90;;;;;;4985917;28;20737;-85
2022/03/09 06:34:31;;;;;;;5.38;2.60;;;1.90;48.00;;;;;;4999736;28;20033;-86
2022/03/09 06:36:57;;;;;;;6.07;2.70;;;1.90;48.10;;;;;;5002372;28;20038;-85
2022/03/09 06:39:25;;;;;;;5.40;2.50;;;1.90;48.20;;;;;;4972774;28;20327;-83
2022/03/09 06:41:50;;;;;;;4.85;2.63;;;1.90;48.10;;;;;;5002144;28;20029;-83
2022/03/09 06:44:17;;;;;;;4.20;2.53;;;1.90;48.20;;;;;;4979786;28;20242;-83
2022/03/09 06:46:42;;;;;;;5.70;2.90;;;1.90;48.30;;;;;;4985057;28;20022;-83
2022/03/09 06:49:08;;;;;;;5.27;2.53;;;1.90;48.30;;;;;;4991584;28;20630;-83
2022/03/09 06:51:34;;;;;;;5.95;2.70;;;2.00;49.50;;;;;;4988942;28;20109;-83
2022/03/09 06:54:00;;;;;;;6.28;3.20;;;2.00;49.10;;;;;;4984148;28;20030;-83
2022/03/09 06:56:25;;;;;;;6.70;2.70;;;2.20;49.50;;;;;;4990383;28;20060;-83
2022/03/09 06:58:51;;;;;;;6.63;2.90;;;2.30;49.50;;;;;;4981153;28;20041;-83
2022/03/09 07:01:17;;;;;;;6.93;2.90;;;2.40;49.50;;;;;;4984502;28;20773;-83
2022/03/09 07:03:42;;;;;;;5.47;2.50;;;2.60;49.50;;;;;;4986230;28;20025;-83
2022/03/09 07:06:08;;;;;;;6.80;2.57;;;2.70;49.50;;;;;;4983515;28;20116;-83
2022/03/09 07:08:34;;;;;;;4.90;2.47;;;2.90;48.90;;;;;;4990191;28;20017;-83
2022/03/09 07:11:01;;;;;;;4.73;2.47;;;3.00;49.10;;;;;;4961566;28;20378;-83
2022/03/09 07:13:26;;;;;;;4.05;2.30;;;3.20;49.30;;;;;;4998847;28;20100;-83
2022/03/09 07:15:52;;;;;;;4.23;2.37;;;3.40;49.20;;;;;;5008268;28;20037;-83
2022/03/09 07:18:18;;;;;;;4.68;2.55;;;3.60;49.10;;;;;;4987776;28;20674;-83
2022/03/09 07:20:43;;;;;;;5.70;2.60;;;3.80;49.00;;;;;;4987932;28;20026;-83
2022/03/09 07:23:09;;;;;;;4.70;2.67;;;4.00;48.90;;;;;;4984813;28;20776;-83
2022/03/09 07:25:35;;;;;;;5.60;2.50;;;4.20;48.80;;;;;;4988594;28;20054;-83
2022/03/09 07:28:01;;;;;;;5.93;2.83;;;4.40;49.50;;;;;;4979902;28;20115;-83
2022/03/09 07:30:27;;;;;;;5.32;2.80;;;4.60;48.80;;;;;;5007308;28;20026;-83
2022/03/09 07:32:52;;;;;;;4.20;2.50;;;4.80;48.80;;;;;;5006939;28;20032;-83
2022/03/09 07:35:19;;;;;;;4.40;2.53;;;4.90;49.00;;;;;;4991396;28;20632;-83
2022/03/09 07:37:44;;;;;;;4.40;2.30;;;5.20;49.30;;;;;;5005658;28;20065;-83
2022/03/09 07:40:10;;;;;;;5.20;2.80;;;5.40;49.60;;;;;;5009301;28;20393;-83
2022/03/09 07:42:36;;;;;;;6.35;2.60;;;5.80;49.80;;;;;;4980212;28;20518;-83
2022/03/09 07:45:06;;;;;;;5.50;2.80;;;6.20;50.10;;;;;;4986093;28;20044;-83
2022/03/09 07:47:33;;;;;;;4.78;2.60;;;6.60;50.30;;;;;;5000630;28;20029;-83
2022/03/09 07:49:59;;;;;;;6.30;3.00;;;7.00;50.10;;;;;;5007111;28;20092;-83
2022/03/09 07:52:25;;;;;;;4.35;2.80;;;7.50;50.10;;;;;;5011035;28;20026;-83
2022/03/09 07:54:51;;;;;;;5.90;3.28;;;7.90;50.30;;;;;;5009068;28;20486;-83
2022/03/09 07:57:16;;;;;;;5.20;2.93;;;8.40;50.50;;;;;;4986626;28;20135;-83
2022/03/09 07:59:42;;;;;;;6.28;3.20;;;8.90;50.40;;;;;;4983937;28;20569;-83
2022/03/09 08:02:08;;;;;;;5.50;3.17;;;9.50;50.60;;;;;;5003517;28;20238;-83
2022/03/09 08:04:34;;;;;;;7.47;3.75;;;10.00;50.50;;;;;;4993678;28;20494;-83
2022/03/09 08:07:00;;;;;;;5.68;3.20;;;10.50;50.20;;;;;;5010766;28;20113;-83
2022/03/09 08:09:26;;;;;;;6.97;3.20;;;11.00;49.80;;;;;;5009019;28;20132;-83
2022/03/09 08:11:52;;;;;;;6.43;3.80;;;11.50;49.60;;;;;;5015557;28;20097;-84
2022/03/09 08:14:18;;;;;;;6.27;3.50;;;12.00;49.30;;;;;;4970001;28;20162;-84
2022/03/09 08:16:44;;;;;;;6.50;3.58;;;12.50;49.00;;;;;;5009249;28;20238;-84
2022/03/09 08:19:09;;;;;;;5.80;3.58;;;12.90;48.60;;;;;;5005104;28;20483;-83
2022/03/09 08:21:35;;;;;;;6.07;3.50;;;13.30;49.00;;;;;;4999751;28;20029;-83
2022/03/09 08:24:01;;;;;;;7.93;4.38;;;13.80;48.60;;;;;;5016309;28;20037;-83
2022/03/09 08:26:27;;;;;;;7.93;3.93;;;14.10;47.30;;;;;;4996940;28;20020;-83
2022/03/09 08:28:52;;;;;;;6.25;4.10;;;14.50;46.80;;;;;;4993999;28;20070;-83
2022/03/09 08:31:18;;;;;;;6.75;4.20;;;14.80;45.90;;;;;;4964566;28;20033;-84
2022/03/09 08:33:44;;;;;;;7.50;4.57;;;15.00;45.40;;;;;;5009746;28;20434;-83
2022/03/09 08:36:12;;;;;;;7.85;4.35;;;15.30;44.70;;;;;;5010058;28;20075;-83
2022/03/09 08:38:38;;;;;;;6.87;4.30;;;15.50;44.10;;;;;;5011948;28;20174;-83
2022/03/09 08:41:05;;;;;;;8.32;4.35;;;15.70;43.90;;;;;;5020362;28;20021;-83
2022/03/09 08:43:30;;;;;;;9.07;4.82;;;15.90;43.60;;;;;;4989809;28;20099;-83
2022/03/09 08:45:56;;;;;;;6.17;3.93;;;16.10;43.60;;;;;;4990200;28;20037;-83
2022/03/09 08:48:21;;;;;;;7.97;4.50;;;16.30;43.30;;;;;;5006927;28;20335;-83
2022/03/09 08:50:47;;;;;;;7.23;4.50;;;16.60;43.10;;;;;;5001260;28;20120;-83
2022/03/09 08:53:13;;;;;;;8.02;4.88;;;16.80;42.90;;;;;;5006877;28;20469;-83
2022/03/09 08:55:39;;;;;;;7.23;4.67;;;17.00;42.40;;;;;;4992760;28;20061;-83
2022/03/09 08:58:04;;;;;;;7.68;4.47;;;17.30;42.10;;;;;;5012006;28;20087;-83
2022/03/09 09:00:30;;;;;;;7.83;4.83;;;17.50;41.90;;;;;;5011251;28;20065;-83
2022/03/09 09:02:56;;;;;;;8.18;4.60;;;17.70;41.80;;;;;;4986849;28;20037;-83
2022/03/09 09:05:22;;;;;;;8.13;4.60;;;17.90;41.50;;;;;;5000377;28;20634;-83
2022/03/09 09:07:48;;;;;;;7.88;4.80;;;18.10;41.10;;;;;;4996370;28;20037;-83
2022/03/09 09:10:14;;;;;;;8.80;5.35;;;18.30;40.30;;;;;;5012088;28;20025;-83
2022/03/09 09:12:40;;;;;;;7.78;4.70;;;18.40;40.10;;;;;;4993816;28;20025;-83
2022/03/09 09:15:06;;;;;;;8.23;5.10;;;18.60;39.90;;;;;;5009468;28;20274;-83
2022/03/09 09:17:32;;;;;;;8.43;4.80;;;18.80;39.70;;;;;;5009581;28;20029;-83
2022/03/09 09:19:58;;;;;;;7.85;4.72;;;18.90;40.40;;;;;;4996910;28;20030;-83
2022/03/09 09:22:24;;;;;;;7.93;4.90;;;19.10;39.50;;;;;;4987894;28;20490;-83
2022/03/09 09:24:49;;;;;;;8.23;4.95;;;19.30;39.10;;;;;;4997715;28;20035;-83
2022/03/09 09:27:15;;;;;;;8.03;4.90;;;19.50;39.00;;;;;;4984904;28;20302;-83
2022/03/09 09:29:41;;;;;;;10.55;6.22;;;19.70;38.50;;;;;;5008016;28;20049;-83
2022/03/09 09:32:07;;;;;;;10.70;6.20;;;19.90;37.80;;;;;;4985413;28;20589;-83
2022/03/09 09:34:32;;;;;;;8.93;5.32;;;20.10;37.00;;;;;;4995549;28;20422;-83
2022/03/09 09:36:59;;;;;;;10.67;5.80;;;20.20;36.80;;;;;;5009495;28;20442;-83
2022/03/09 09:39:25;;;;;;;9.30;5.33;;;20.30;36.60;;;;;;5003101;28;20550;-83
2022/03/09 09:41:52;;;;;;;9.07;5.40;;;20.50;36.50;;;;;;4994627;28;20037;-84
2022/03/09 09:44:21;;;;;;;8.98;5.15;;;20.60;36.40;;;;;;4987146;28;20033;-84
2022/03/09 09:46:47;;;;;;;7.30;4.67;;;20.70;36.10;;;;;;5000323;28;20033;-83
2022/03/09 09:49:15;;;;;;;9.23;5.57;;;21.00;36.60;;;;;;4982256;28;20060;-83
2022/03/09 09:51:43;;;;;;;9.48;6.15;;;21.10;36.30;;;;;;5008487;28;20030;-83
2022/03/09 09:54:10;;;;;;;9.57;5.72;;;21.40;35.20;;;;;;5011489;28;20245;-83
2022/03/09 09:56:38;;;;;;;9.68;5.82;;;21.60;35.10;;;;;;5013822;28;20037;-84
2022/03/09 09:59:05;;;;;;;8.97;5.63;;;21.70;35.00;;;;;;5004525;28;20207;-84
2022/03/09 10:01:31;;;;;;;10.52;6.32;;;21.90;35.00;;;;;;5019756;28;20036;-84
2022/03/09 10:03:57;;;;;;;10.23;5.90;;;22.10;34.40;;;;;;5000248;28;20029;-84
2022/03/09 10:06:23;;;;;;;8.18;5.50;;;22.30;34.30;;;;;;4983456;28;20108;-84
2022/03/09 10:09:03;;;;;;;8.13;5.00;;;22.50;34.40;;;;;;4990465;28;20470;-84
2022/03/09 10:11:45;;;;;;;9.88;6.03;;;22.70;33.20;;;;;;4998991;28;20021;-84
2022/03/09 10:14:11;;;;;;;10.40;6.13;;;22.80;32.40;;;;;;5008412;28;20260;-84
2022/03/09 10:16:37;;;;;;;9.40;6.38;;;23.00;33.00;;;;;;4991455;28;20041;-84
2022/03/09 10:19:03;;;;;;;10.20;5.93;;;23.10;32.70;;;;;;4987236;28;20025;-84
2022/03/09 10:21:35;;;;;;;8.82;5.82;;;23.20;32.50;;;;;;4995027;28;20056;-84
2022/03/09 10:24:09;;;;;;;10.63;6.40;;;23.40;32.00;;;;;;4988629;28;20022;-84
2022/03/09 10:26:34;;;;;;;8.85;5.85;;;23.50;31.60;;;;;;5009678;28;20065;-84
2022/03/09 10:29:12;;;;;;;9.85;6.00;;;23.60;32.10;;;;;;4974580;28;20088;-84
2022/03/09 10:31:44;;;;;;;11.27;6.20;;;23.70;31.40;;;;;;4991574;28;20025;-84
2022/03/09 10:34:15;;;;;;;11.25;6.53;;;23.90;31.30;;;;;;4999967;28;20199;-84
2022/03/09 10:36:56;;;;;;;12.02;6.60;;;24.00;30.80;;;;;;5001203;28;20030;-84
2022/03/09 10:39:24;;;;;;;9.88;6.70;;;24.30;31.40;;;;;;4996217;28;20441;-84
2022/03/09 10:41:49;;;;;;;9.77;6.10;;;24.50;30.70;;;;;;4996467;28;20037;-84
2022/03/09 10:44:15;;;;;;;10.50;6.63;;;24.70;30.90;;;;;;4987874;28;20674;-84
2022/03/09 10:46:49;;;;;;;10.88;6.70;;;24.90;30.60;;;;;;5009468;28;20092;-84
2022/03/09 10:49:23;;;;;;;9.50;6.30;;;25.10;29.50;;;;;;4995627;28;20261;-84
2022/03/09 10:51:52;;;;;;;10.25;6.47;;;25.30;30.00;;;;;;4974142;28;20229;-84
2022/03/09 10:54:29;;;;;;;9.65;6.13;;;25.40;29.70;;;;;;4988871;28;20386;-84
2022/03/09 10:57:04;;;;;;;9.75;6.25;;;25.50;29.10;;;;;;5000650;28;20034;-84
2022/03/09 10:59:41;;;;;;;9.55;6.05;;;25.60;28.80;;;;;;4987568;28;20083;-84
2022/03/09 11:02:09;;;;;;;9.27;6.17;;;25.80;29.70;;;;;;5000854;28;20124;-84
2022/03/09 11:04:36;;;;;;;9.40;6.68;;;26.00;29.40;;;;;;5012217;28;20034;-84
2022/03/09 11:07:02;;;;;;;9.88;6.53;;;26.10;29.20;;;;;;4984400;28;20698;-84
2022/03/09 11:09:29;;;;;;;10.20;6.25;;;26.30;29.30;;;;;;5005011;28;20036;-84
2022/03/09 11:11:56;;;;;;;9.73;6.55;;;26.50;29.20;;;;;;5008729;28;20021;-84
2022/03/09 11:14:26;;;;;;;10.13;6.80;;;26.60;28.70;;;;;;4999665;28;20521;-84
2022/03/09 11:16:54;;;;;;;11.88;7.28;;;26.70;28.50;;;;;;4996712;28;20358;-84
2022/03/09 11:19:20;;;;;;;12.07;7.38;;;26.80;27.90;;;;;;5007589;28;20056;-84
2022/03/09 11:21:47;;;;;;;11.73;7.32;;;26.90;27.70;;;;;;4961365;28;20038;-84
2022/03/09 11:24:15;;;;;;;11.35;6.82;;;27.00;27.70;;;;;;5005285;28;20045;-84
2022/03/09 11:26:47;;;;;;;12.87;7.77;;;27.10;27.60;;;;;;5003733;28;20034;-84
2022/03/09 11:29:13;;;;;;;10.80;7.05;;;27.10;27.20;;;;;;4995662;28;20045;-84
2022/03/09 11:31:45;;;;;;;10.07;6.82;;;27.20;27.50;;;;;;4986790;28;20028;-84
2022/03/09 11:34:33;;;;;;;11.52;6.90;;;27.30;27.20;;;;;;4999302;28;20025;-84
2022/03/09 11:37:02;;;;;;;10.53;7.00;;;27.40;26.70;;;;;;4989658;28;20559;-84
2022/03/09 11:39:28;;;;;;;11.52;7.25;;;27.50;27.30;;;;;;5020424;28;20417;-84
2022/03/09 11:42:22;;;;;;;11.70;7.25;;;27.60;27.10;;;;;;5012952;28;20092;-84
2022/03/09 11:45:14;;;;;;;10.77;6.95;;;27.80;26.90;;;;;;5009166;28;20069;-84
2022/03/09 11:48:01;;;;;;;11.90;7.63;;;27.90;26.70;;;;;;5008783;28;20022;-84
2022/03/09 11:50:29;;;;;;;13.50;8.25;;;27.90;26.20;;;;;;5007698;28;20080;-84
2022/03/09 11:53:02;;;;;;;13.27;8.60;;;28.00;26.20;;;;;;4988700;28;20047;-84
2022/03/09 11:55:28;;;;;;;10.45;6.82;;;27.90;25.60;;;;;;4992074;28;20104;-84
2022/03/09 11:58:12;;;;;;;10.23;6.60;;;27.90;26.10;;;;;;5010384;28;20263;-85
2022/03/09 12:01:03;;;;;;;12.00;7.00;;;28.00;26.40;;;;;;5012994;28;20752;-84
2022/03/09 12:03:40;;;;;;;11.07;6.97;;;28.10;25.90;;;;;;5004132;28;20030;-84
2022/03/09 12:06:44;;;;;;;11.27;7.22;;;28.30;26.40;;;;;;5004366;28;20116;-84
2022/03/09 12:09:10;;;;;;;10.45;6.25;;;28.50;26.20;;;;;;4994949;28;20091;-84
2022/03/09 12:12:07;;;;;;;11.85;7.38;;;28.50;26.00;;;;;;5006351;28;20022;-84
2022/03/09 12:15:01;;;;;;;11.00;6.77;;;28.60;25.20;;;;;;5004488;28;20056;-85
2022/03/09 12:17:28;;;;;;;12.90;7.68;;;28.50;25.00;;;;;;5004159;28;20042;-84
2022/03/09 12:20:31;;;;;;;11.35;6.65;;;28.50;25.10;;;;;;4984927;28;20289;-84
2022/03/09 12:22:56;;;;;;;11.63;6.35;;;28.50;25.10;;;;;;4972324;28;24686;-85
2022/03/09 12:25:50;;;;;;;11.80;6.53;;;28.70;25.50;;;;;;4984754;28;20053;-85
2022/03/09 12:28:22;;;;;;;10.80;6.63;;;28.80;25.60;;;;;;4987193;28;20053;-85
2022/03/09 12:30:54;;;;;;;11.23;7.22;;;29.10;25.40;;;;;;5002545;28;20394;-85
2022/03/09 12:33:21;;;;;;;10.82;6.60;;;29.30;25.40;;;;;;5002166;28;20033;-85
2022/03/09 12:35:47;;;;;;;11.10;6.83;;;29.50;25.00;;;;;;4991053;28;20421;-85
2022/03/09 12:38:14;;;;;;;12.15;7.18;;;29.50;25.00;;;;;;5008269;28;20033;-85
2022/03/09 12:40:40;;;;;;;10.73;6.78;;;29.50;24.60;;;;;;4984013;28;20547;-84
2022/03/09 12:43:06;;;;;;;10.90;6.77;;;29.60;24.50;;;;;;4999847;28;20264;-84
2022/03/09 12:45:51;;;;;;;12.15;7.82;;;29.60;24.40;;;;;;4997828;28;20514;-84
2022/03/09 12:48:21;;;;;;;10.45;6.65;;;29.50;23.50;;;;;;4999250;28;20041;-85
2022/03/09 12:50:48;;;;;;;15.05;7.38;;;29.50;23.70;;;;;;4989801;28;20758;-84
2022/03/09 12:53:20;;;;;;;12.80;7.93;;;29.40;23.60;;;;;;5014966;28;20026;-85